Weather reports worldwide

Advertisment
Reinosa, Spain (8032): temperature & dewpoint: 14.08.2019 06:00:00 - 20.08.2019 06:00:00 (CEST)Reinosa, Spain (8032): wind speed & gusts: 14.08.2019 06:00:00 - 20.08.2019 06:00:00 (CEST)Reinosa, Spain (8032): wind direction: 14.08.2019 06:00:00 - 20.08.2019 06:00:00 (CEST)Reinosa, Spain (8032): precipitation: 14.08.2019 06:00:00 - 20.08.2019 06:00:00 (CEST)
Date & Time tt [°C] td [°C] ff [km/h] ff [kn] fx [km/h] fx [kn] dd rr [mm]
20.08.2019 06:00:00 - - - - - - - -
20.08.2019 05:00:00 12,1 10,0 5 3 24 13 NNW 0,0
20.08.2019 04:00:00 12,3 9,7 3 2 21 11 NNW 0,0
20.08.2019 03:00:00 12,4 9,6 6 3 23 12 N 0,0
20.08.2019 02:00:00 12,2 9,9 4 2 23 13 NNE -
20.08.2019 01:00:00 12,3 10,5 3 2 22 12 NNE 0,0
20.08.2019 00:00:00 12,3 10,0 6 4 21 11 NW 0,0
19.08.2019 23:00:00 12,7 9,7 11 6 22 12 NNW 0,0
19.08.2019 22:00:00 12,6 9,6 6 4 85 46 N 0,0
19.08.2019 21:00:00 12,4 10,2 10 6 23 12 NNW 0,0
19.08.2019 20:00:00 13,7 9,9 7 4 24 13 N -
19.08.2019 19:00:00 14,5 9,9 8 4 30 16 N 0,0
19.08.2019 18:00:00 14,9 9,9 13 7 27 14 N 0,0
19.08.2019 17:00:00 16,0 9,4 9 5 27 15 NNE 0,0
19.08.2019 16:00:00 17,5 9,4 10 5 23 12 NNE 0,0
19.08.2019 15:00:00 16,6 9,3 11 6 28 15 NNE 0,0
19.08.2019 14:00:00 15,5 8,9 11 6 25 14 NE -
19.08.2019 13:00:00 14,7 9,0 11 6 24 13 ENE 0,0
19.08.2019 12:00:00 13,7 9,6 14 8 23 13 NE 0,0
19.08.2019 11:00:00 13,4 9,7 9 5 19 10 NE 0,0
19.08.2019 10:00:00 12,4 10,3 0 0 8 5 NNW 0,0
19.08.2019 09:00:00 11,7 10,3 5 3 11 6 E 0,0
19.08.2019 08:00:00 11,5 10,0 4 2 8 5 E -
19.08.2019 07:00:00 11,5 9,9 3 2 10 5 ESE 0,0
19.08.2019 06:00:00 11,6 9,2 9 5 14 8 W 0,0
19.08.2019 05:00:00 11,9 9,9 6 4 11 6 W 0,0
19.08.2019 04:00:00 11,7 10,4 3 2 7 4 SSE 0,0
19.08.2019 03:00:00 11,5 10,3 3 2 9 5 ESE 0,0
19.08.2019 02:00:00 11,8 10,4 3 2 7 4 SE -
19.08.2019 01:00:00 11,9 10,5 1 1 12 7 SSW 0,0
19.08.2019 00:00:00 12,0 10,4 6 4 13 7 ENE 0,0
18.08.2019 23:00:00 12,6 10,5 5 3 15 8 NE 0,0
18.08.2019 22:00:00 13,3 10,3 6 4 15 8 NW 0,0
18.08.2019 21:00:00 14,1 10,9 3 2 18 10 N 0,0
18.08.2019 20:00:00 14,8 11,0 9 5 19 10 NNW -
18.08.2019 19:00:00 15,1 12,6 7 4 22 12 ENE 0,0
18.08.2019 18:00:00 15,3 12,4 13 7 20 11 NW 0,0
18.08.2019 17:00:00 15,0 13,1 4 2 34 18 NE 1,5
18.08.2019 16:00:00 16,7 11,4 6 4 29 15 NNW 0,0
18.08.2019 15:00:00 18,8 13,0 16 9 29 16 ENE 0,0
18.08.2019 14:00:00 22,0 12,2 10 5 26 14 NNE -
18.08.2019 13:00:00 21,9 13,0 10 6 23 13 NE 0,0
18.08.2019 12:00:00 20,0 13,7 10 6 22 12 NE 0,0
18.08.2019 11:00:00 19,6 14,4 3 2 9 5 NNE 0,0
18.08.2019 10:00:00 16,5 14,1 2 1 5 3 SW 0,0
18.08.2019 09:00:00 12,3 11,2 5 3 8 5 WSW 0,0
18.08.2019 08:00:00 9,8 8,8 2 1 8 4 SE -
18.08.2019 07:00:00 9,3 8,3 1 1 8 5 W 0,0
18.08.2019 06:00:00 10,1 9,0 1 0 6 3 N 0,0
18.08.2019 05:00:00 8,9 7,8 4 2 8 4 W 0,0
18.08.2019 04:00:00 11,3 10,2 2 1 5 3 SSW 0,0
18.08.2019 03:00:00 10,2 8,9 6 3 9 5 WNW 0,0
18.08.2019 02:00:00 12,2 10,8 1 1 9 5 WNW -
18.08.2019 01:00:00 14,5 13,4 6 4 10 6 SW 0,0
18.08.2019 00:00:00 14,1 13,0 4 2 6 4 W 0,0
17.08.2019 23:00:00 15,5 13,9 2 1 4 2 SW 0,0
17.08.2019 22:00:00 16,9 14,5 1 1 10 5 W 0,0
17.08.2019 21:00:00 19,7 15,5 5 3 19 10 ESE 0,0
17.08.2019 20:00:00 21,7 14,8 11 6 24 13 ENE -
17.08.2019 19:00:00 23,7 13,9 17 9 25 14 ENE 0,0
17.08.2019 18:00:00 25,3 12,8 16 9 28 15 ENE 0,0
17.08.2019 17:00:00 27,2 12,4 13 7 29 15 ENE 0,0
17.08.2019 16:00:00 28,5 12,0 12 6 27 14 ENE 0,0
17.08.2019 15:00:00 28,6 10,3 9 5 37 20 E 0,0
17.08.2019 14:00:00 27,3 10,0 12 7 22 12 E -
17.08.2019 13:00:00 25,4 9,3 10 5 20 11 ENE 0,0
17.08.2019 12:00:00 23,9 8,7 6 3 14 8 ENE 0,0
17.08.2019 11:00:00 22,0 8,8 5 3 9 5 E 0,0
17.08.2019 10:00:00 17,3 9,9 1 1 4 2 SSE 0,0
17.08.2019 09:00:00 13,3 9,7 3 1 5 3 SSE 0,0
17.08.2019 08:00:00 8,5 7,3 3 1 6 4 W -
17.08.2019 07:00:00 9,5 8,3 4 2 8 4 W 0,0
17.08.2019 06:00:00 9,3 8,1 3 2 9 5 W 0,0
17.08.2019 05:00:00 11,2 9,9 6 3 10 5 WSW 0,0
17.08.2019 04:00:00 9,8 8,5 4 2 7 4 WNW 0,0
17.08.2019 03:00:00 11,2 9,9 2 1 7 4 WNW 0,0
17.08.2019 02:00:00 12,6 11,2 4 2 7 4 S -
17.08.2019 01:00:00 12,6 11,0 6 4 8 5 WSW 0,0
17.08.2019 00:00:00 12,1 10,5 7 4 9 5 WNW 0,0
16.08.2019 23:00:00 15,4 11,6 4 2 8 4 ESE 0,0
16.08.2019 22:00:00 14,9 10,3 1 0 14 7 S 0,0
16.08.2019 21:00:00 18,3 11,3 7 4 14 7 E 0,0
16.08.2019 20:00:00 20,7 11,9 10 5 27 15 ENE -
16.08.2019 19:00:00 23,2 12,5 12 7 29 15 NE 0,0
16.08.2019 18:00:00 24,9 11,4 20 11 28 15 ENE 0,0
16.08.2019 17:00:00 25,6 11,3 14 7 29 16 NE 0,0
16.08.2019 16:00:00 26,2 12,6 16 8 29 15 ENE 0,0
16.08.2019 15:00:00 26,4 11,7 17 9 28 15 ENE 0,0
16.08.2019 14:00:00 26,8 12,1 16 9 27 15 ENE -
16.08.2019 13:00:00 25,7 12,2 5 3 13 7 E 0,0
16.08.2019 12:00:00 22,3 12,2 4 2 10 5 ENE 0,0
16.08.2019 11:00:00 19,2 12,2 1 1 7 4 NNE 0,0
16.08.2019 10:00:00 16,0 11,8 2 1 6 4 ENE 0,0
16.08.2019 09:00:00 12,8 11,7 0 0 1 1 ENE 0,0
16.08.2019 08:00:00 9,6 8,5 0 0 6 3 NE -
16.08.2019 07:00:00 9,6 8,5 2 1 7 4 W 0,0
16.08.2019 06:00:00 11,0 9,9 5 3 8 4 SW 0,0
16.08.2019 05:00:00 11,9 10,8 4 2 9 5 WNW 0,0
16.08.2019 04:00:00 12,5 11,4 7 4 9 5 WNW 0,0
16.08.2019 03:00:00 13,2 12,1 2 1 8 4 S 0,0
16.08.2019 02:00:00 13,2 12,1 3 2 7 4 WNW -
16.08.2019 01:00:00 13,6 12,5 1 1 11 6 ESE 0,0
16.08.2019 00:00:00 13,4 12,3 8 4 18 10 ENE 0,0
15.08.2019 23:00:00 14,1 12,6 7 4 14 8 ENE 0,0
15.08.2019 22:00:00 13,8 12,3 6 3 12 7 NE 0,0
15.08.2019 21:00:00 14,4 12,6 6 3 16 9 ENE 0,0
15.08.2019 20:00:00 15,3 13,0 9 5 21 12 ENE -
15.08.2019 19:00:00 15,9 12,8 9 5 25 14 NE 0,0
15.08.2019 18:00:00 16,4 12,5 11 6 25 14 NE 0,0
15.08.2019 17:00:00 16,6 12,3 15 8 27 15 ENE 0,0
15.08.2019 16:00:00 17,0 12,3 17 9 28 15 ENE 0,0
15.08.2019 15:00:00 17,9 12,1 11 6 22 12 NE 0,0
15.08.2019 14:00:00 17,2 11,4 10 6 24 13 NE -
15.08.2019 13:00:00 17,6 11,4 12 6 21 11 ENE 0,0
15.08.2019 12:00:00 17,0 12,3 10 6 22 12 NE 0,0
15.08.2019 11:00:00 15,5 12,6 14 8 22 12 ENE 0,0
15.08.2019 10:00:00 15,2 13,3 11 6 19 10 ENE 0,0
15.08.2019 09:00:00 14,5 13,3 9 5 14 8 ENE 0,0
15.08.2019 08:00:00 14,1 13,0 4 2 12 7 NE -
15.08.2019 07:00:00 13,9 12,7 3 2 16 9 NE 0,0
15.08.2019 06:00:00 14,6 13,4 6 3 11 6 E 0,0
15.08.2019 05:00:00 14,8 13,6 2 1 6 3 NE 0,0
15.08.2019 04:00:00 15,2 13,9 2 1 10 5 ESE 0,0
15.08.2019 03:00:00 15,5 14,2 5 3 9 5 ESE 0,0
15.08.2019 02:00:00 15,6 14,3 4 2 10 5 ESE -
15.08.2019 01:00:00 15,5 13,9 6 3 9 5 ESE 0,0
15.08.2019 00:00:00 15,5 13,9 0 0 9 5 WNW 0,0
14.08.2019 23:00:00 15,1 13,5 7 4 13 7 E 0,0
14.08.2019 22:00:00 15,6 13,0 2 1 17 9 S 0,0
14.08.2019 21:00:00 17,0 11,7 9 5 23 12 NE 0,0
14.08.2019 20:00:00 20,0 11,0 13 7 24 13 ENE -
14.08.2019 19:00:00 21,2 9,8 15 8 29 16 ENE 0,0
14.08.2019 18:00:00 22,5 9,3 18 10 27 15 ENE 0,0
14.08.2019 17:00:00 23,1 9,2 18 10 29 16 ENE 0,0
14.08.2019 16:00:00 23,6 10,3 19 10 31 17 ENE 0,0
14.08.2019 15:00:00 24,4 9,9 15 8 26 14 ENE 0,0
14.08.2019 14:00:00 24,3 9,0 8 4 18 10 NE -
14.08.2019 13:00:00 23,2 8,1 5 3 18 10 NNE 0,0
14.08.2019 12:00:00 22,2 8,7 3 2 13 7 ENE 0,0
14.08.2019 11:00:00 19,0 9,2 3 2 8 4 ESE 0,0
14.08.2019 10:00:00 15,3 9,8 3 1 8 4 SE 0,0
14.08.2019 09:00:00 11,7 10,3 1 1 8 4 NW 0,0
14.08.2019 08:00:00 8,1 7,0 3 1 7 4 WNW -
14.08.2019 07:00:00 8,0 7,0 4 2 10 5 NW 0,0
14.08.2019 06:00:00 8,0 7,0 3 1 9 5 W 0,0

tt = temperature
td = dewpoint
ff = wind speed
fx = gusts
dd = wind direction
rr = precipitation

Next stations